KMBO

Bruce Campbell Field Airport

Madison, Mississippi, USA
METAR KMBO 172115Z AUTO 22009KT 10SM SCT037 SCT045 SCT065 22/16 A3007 RMK AO2 PWINO
Observed Flight Rules
Feb-17 @ 21:15 UTC (17 minutes ago) Visual Flight Rules
Wind Visibility Clouds
220° at 9 knots 10 miles
  • Scattered at 3,700' AGL
  • Scattered at 4,500' AGL
  • Scattered at 6,500' AGL
Temperatures Readings
Current 22°C / 72°F
Dewpoint 16°C / 61°F
Humidity 69%
Altimeter 30.07" Hg
Pressure 1018 hPa
Elevation 99
METAR KMBO 172115Z AUTO 22009KT 10SM SCT037 SCT045 SCT065 22/16 A3007 RMK AO2 PWINO
Observed Flight Rules
Feb-17 @ 21:15 UTC
(17 minutes ago)
VFR
Wind Visibility
220° at 9 knots 10 miles
Clouds
  • Scattered at 3,700' AGL
  • Scattered at 4,500' AGL
  • Scattered at 6,500' AGL
Temperature Dewpoint
22°C / 72°F 16°C / 61°F
Humidity Altimeter Pressure
69% 30.07" Hg 1018 hPa